createdAt,value
2022-11-30T00:01:00.393Z,14.23
2022-11-30T00:03:29.818Z,12.83
2022-11-30T00:05:57.892Z,13.17
2022-11-30T00:08:30.083Z,13.37
2022-11-30T00:10:58.148Z,12.20
2022-11-30T00:13:26.225Z,12.83
2022-11-30T00:15:54.185Z,12.10
2022-11-30T00:18:22.139Z,9.00
2022-11-30T00:20:51.531Z,10.50
2022-11-30T00:23:19.449Z,9.97
2022-11-30T00:25:47.837Z,8.50
2022-11-30T00:28:15.803Z,8.50
2022-11-30T00:30:43.788Z,9.90
2022-11-30T00:33:11.783Z,10.20
2022-11-30T00:35:39.776Z,14.10
2022-11-30T00:38:09.215Z,10.27
2022-11-30T00:40:37.183Z,10.00
2022-11-30T00:43:05.213Z,10.60
2022-11-30T00:45:33.274Z,12.90
2022-11-30T00:48:01.175Z,11.23
2022-11-30T00:50:29.119Z,11.37
2022-11-30T00:52:57.611Z,9.80
2022-11-30T00:55:29.207Z,10.83
2022-11-30T00:57:58.562Z,11.80
2022-11-30T01:00:26.472Z,13.80
2022-11-30T01:02:55.183Z,10.20
2022-11-30T01:05:23.168Z,11.40
2022-11-30T01:07:51.180Z,12.63
2022-11-30T01:10:19.500Z,11.80
2022-11-30T01:12:48.978Z,11.00
2022-11-30T01:15:17.040Z,13.17
2022-11-30T01:17:45.040Z,12.23
2022-11-30T01:20:14.831Z,12.57
2022-11-30T01:22:42.826Z,11.27
2022-11-30T01:25:11.271Z,13.70
2022-11-30T01:27:39.422Z,14.60
2022-11-30T01:30:09.979Z,14.67
2022-11-30T01:32:37.943Z,14.10
2022-11-30T01:35:06.523Z,15.10
2022-11-30T01:37:34.450Z,16.53
2022-11-30T01:40:02.776Z,13.53
2022-11-30T01:42:32.956Z,15.50
2022-11-30T01:45:03.090Z,14.80
2022-11-30T01:47:34.631Z,16.40
2022-11-30T01:50:07.137Z,11.47
2022-11-30T01:52:38.355Z,17.00
2022-11-30T01:55:15.881Z,19.97
2022-11-30T01:57:47.872Z,16.30
2022-11-30T02:00:17.303Z,14.53
2022-11-30T02:02:54.365Z,15.27
2022-11-30T02:05:25.666Z,15.40
2022-11-30T02:07:54.002Z,15.27
2022-11-30T02:10:27.818Z,14.80
2022-11-30T02:13:28.459Z,12.90
2022-11-30T02:16:05.438Z,12.83
2022-11-30T02:18:47.702Z,13.77
2022-11-30T02:21:20.030Z,16.97
2022-11-30T02:24:14.792Z,15.73
2022-11-30T02:27:01.021Z,14.40
2022-11-30T02:29:34.473Z,16.50
2022-11-30T02:32:09.487Z,14.63
2022-11-30T02:34:39.186Z,14.97
2022-11-30T02:37:09.030Z,15.00
2022-11-30T02:39:37.105Z,13.73
2022-11-30T02:42:05.231Z,16.97
2022-11-30T02:44:35.042Z,16.57
2022-11-30T02:47:13.706Z,14.07
2022-11-30T02:49:49.977Z,15.03
2022-11-30T02:52:19.900Z,13.70
2022-11-30T02:54:48.222Z,14.80
2022-11-30T02:57:16.469Z,16.40
2022-11-30T02:59:46.024Z,13.70
2022-11-30T03:02:14.395Z,15.87
2022-11-30T03:04:42.431Z,15.23
2022-11-30T03:07:10.586Z,16.60
2022-11-30T03:09:38.579Z,15.83
2022-11-30T03:12:07.031Z,16.23
2022-11-30T03:14:35.089Z,15.33
2022-11-30T03:17:05.820Z,16.60
2022-11-30T03:19:34.264Z,12.97
2022-11-30T03:22:02.583Z,13.30
2022-11-30T03:24:30.689Z,17.67
2022-11-30T03:26:58.890Z,16.63
2022-11-30T03:29:27.183Z,15.50
2022-11-30T03:31:55.209Z,15.30
2022-11-30T03:34:26.774Z,14.30
2022-11-30T03:36:54.906Z,13.90
2022-11-30T03:39:23.593Z,16.13
2022-11-30T03:41:51.639Z,14.07
2022-11-30T03:44:19.970Z,12.90
2022-11-30T03:46:48.044Z,15.23
2022-11-30T03:49:16.054Z,16.53
2022-11-30T03:51:45.499Z,14.30
2022-11-30T03:54:13.600Z,12.40
2022-11-30T03:56:41.601Z,15.50
2022-11-30T03:59:09.709Z,16.73
2022-11-30T04:01:40.066Z,16.93
2022-11-30T04:04:08.621Z,15.30
2022-11-30T04:06:36.583Z,14.77
2022-11-30T04:09:05.990Z,15.70
2022-11-30T04:11:34.122Z,14.50
2022-11-30T04:14:02.156Z,16.13
2022-11-30T04:16:30.387Z,14.93
2022-11-30T04:18:58.401Z,14.80
2022-11-30T04:21:26.386Z,16.83
2022-11-30T04:23:54.498Z,15.50
2022-11-30T04:26:23.879Z,15.20
2022-11-30T04:28:51.840Z,15.63
2022-11-30T04:31:19.932Z,14.30
2022-11-30T04:33:47.959Z,15.87
2022-11-30T04:36:27.646Z,16.53
2022-11-30T04:38:55.635Z,12.67
2022-11-30T04:41:25.216Z,16.37
2022-11-30T04:43:53.288Z,15.23
2022-11-30T04:46:21.269Z,15.53
2022-11-30T04:48:49.208Z,19.13
2022-11-30T04:51:17.139Z,16.07
2022-11-30T04:53:45.135Z,15.40
2022-11-30T04:56:13.496Z,16.13
2022-11-30T04:58:42.897Z,15.80
2022-11-30T05:01:11.077Z,19.70
2022-11-30T05:03:39.182Z,18.87
2022-11-30T05:06:07.549Z,21.10
2022-11-30T05:08:35.594Z,18.87
2022-11-30T05:11:03.731Z,15.70
2022-11-30T05:13:31.940Z,20.43
2022-11-30T05:16:01.511Z,21.87
2022-11-30T05:18:31.782Z,19.83
2022-11-30T05:20:59.718Z,18.37
2022-11-30T05:23:27.794Z,17.90
2022-11-30T05:25:56.224Z,19.97
2022-11-30T05:28:24.702Z,25.30
2022-11-30T05:31:01.603Z,22.23
2022-11-30T05:33:31.206Z,22.83
2022-11-30T05:35:59.272Z,30.60
2022-11-30T05:38:27.411Z,20.53
2022-11-30T05:41:01.590Z,25.77
2022-11-30T05:43:30.234Z,28.80
2022-11-30T05:46:01.962Z,26.67
2022-11-30T05:48:31.357Z,26.03
2022-11-30T05:51:06.614Z,23.57
2022-11-30T05:53:34.674Z,25.17
2022-11-30T05:56:04.035Z,29.77
2022-11-30T05:58:32.315Z,25.37
2022-11-30T06:01:02.607Z,25.83
2022-11-30T06:04:08.845Z,25.50
2022-11-30T06:06:37.200Z,24.50
2022-11-30T06:09:05.420Z,28.87
2022-11-30T06:11:33.590Z,24.20
2022-11-30T06:14:01.931Z,23.60
2022-11-30T06:16:30.368Z,29.90
2022-11-30T06:18:59.822Z,25.63
2022-11-30T06:21:27.876Z,33.27
2022-11-30T06:23:55.877Z,26.87
2022-11-30T06:26:24.096Z,25.97
2022-11-30T06:28:52.120Z,24.93
2022-11-30T06:31:20.230Z,27.03
2022-11-30T06:33:48.455Z,31.93
2022-11-30T06:36:22.385Z,27.17
2022-11-30T06:38:50.530Z,25.77
2022-11-30T06:41:19.459Z,26.93
2022-11-30T06:43:47.586Z,27.13
2022-11-30T06:46:16.292Z,26.37
2022-11-30T06:48:44.525Z,27.17
2022-11-30T06:51:12.784Z,30.10
2022-11-30T06:53:44.419Z,32.87
2022-11-30T06:56:13.401Z,26.10
2022-11-30T06:58:42.302Z,31.43
2022-11-30T07:01:13.563Z,30.53
2022-11-30T07:03:42.743Z,32.40
2022-11-30T07:06:13.061Z,31.80
2022-11-30T07:08:48.737Z,34.47
2022-11-30T07:13:59.627Z,29.33
2022-11-30T07:16:27.705Z,29.30
2022-11-30T07:18:55.763Z,26.10
2022-11-30T07:21:23.874Z,31.30
2022-11-30T07:24:11.114Z,33.90
2022-11-30T07:26:39.084Z,34.13
2022-11-30T07:29:07.055Z,34.03
2022-11-30T07:31:35.745Z,29.17
2022-11-30T07:34:06.767Z,34.10
2022-11-30T07:36:35.558Z,31.60
2022-11-30T07:39:05.651Z,31.67
2022-11-30T07:41:33.704Z,32.73
2022-11-30T07:44:01.915Z,35.80
2022-11-30T07:46:29.884Z,32.00
2022-11-30T07:48:58.120Z,33.57
2022-11-30T07:51:26.523Z,29.90
2022-11-30T07:53:57.187Z,24.13
2022-11-30T07:56:27.988Z,30.27
2022-11-30T07:58:57.836Z,33.60
2022-11-30T08:01:28.388Z,26.67
2022-11-30T08:03:56.696Z,31.77
2022-11-30T08:06:27.004Z,36.60
2022-11-30T08:08:57.902Z,32.23
2022-11-30T08:11:31.070Z,38.17
2022-11-30T08:13:59.237Z,26.03
2022-11-30T08:16:29.948Z,35.67
2022-11-30T08:18:58.292Z,34.10
2022-11-30T08:21:26.753Z,32.40
2022-11-30T08:23:57.111Z,39.53
2022-11-30T08:26:28.027Z,29.23
2022-11-30T08:28:56.869Z,28.03
2022-11-30T08:31:27.278Z,36.67
2022-11-30T08:33:59.970Z,34.10
2022-11-30T08:36:29.584Z,30.17
2022-11-30T08:38:58.876Z,30.30
2022-11-30T08:41:28.497Z,30.63
2022-11-30T08:43:56.593Z,29.60
2022-11-30T08:46:50.300Z,33.30
2022-11-30T08:49:22.586Z,42.00
2022-11-30T08:52:16.420Z,33.00
2022-11-30T08:54:42.797Z,32.33
2022-11-30T08:57:12.735Z,34.50
2022-11-30T08:59:40.767Z,33.70
2022-11-30T09:02:11.504Z,27.27
2022-11-30T09:04:39.725Z,31.70
2022-11-30T09:07:07.630Z,33.37
2022-11-30T09:09:35.561Z,33.97
2022-11-30T09:12:03.728Z,37.17
2022-11-30T09:14:33.103Z,30.97
2022-11-30T09:17:01.121Z,35.50
2022-11-30T09:19:29.314Z,37.10
2022-11-30T09:21:57.268Z,30.47
2022-11-30T09:24:25.254Z,37.13
2022-11-30T09:26:56.802Z,33.40
2022-11-30T09:29:24.881Z,30.50
2022-11-30T09:31:54.252Z,29.40
2022-11-30T09:34:22.360Z,32.27
2022-11-30T09:36:50.349Z,25.53
2022-11-30T09:39:18.438Z,36.70
2022-11-30T09:42:26.055Z,29.53
2022-11-30T09:45:02.711Z,27.67
2022-11-30T09:47:50.936Z,39.97
2022-11-30T09:50:22.013Z,32.03
2022-11-30T09:52:53.101Z,33.87
2022-11-30T09:55:27.268Z,37.27
2022-11-30T09:57:57.906Z,34.30
2022-11-30T10:00:26.495Z,33.10
2022-11-30T10:02:58.271Z,35.17
2022-11-30T10:05:29.511Z,31.10
2022-11-30T10:08:13.190Z,30.83
2022-11-30T10:10:43.427Z,29.13
2022-11-30T10:13:32.682Z,31.80
2022-11-30T10:16:13.602Z,25.70
2022-11-30T10:18:51.567Z,21.77
2022-11-30T10:21:37.433Z,23.70
2022-11-30T10:24:26.666Z,26.00
2022-11-30T10:26:56.310Z,24.30
2022-11-30T10:29:32.002Z,21.73
2022-11-30T10:32:03.525Z,23.10
2022-11-30T10:34:35.895Z,28.67
2022-11-30T10:37:11.199Z,26.57
2022-11-30T10:39:44.598Z,28.20
2022-11-30T10:42:20.349Z,27.53
2022-11-30T10:44:58.902Z,27.73
2022-11-30T10:47:31.347Z,29.40
2022-11-30T10:50:01.672Z,31.33
2022-11-30T10:52:35.825Z,32.63
2022-11-30T10:55:05.293Z,25.53
2022-11-30T10:57:36.345Z,29.30
2022-11-30T11:00:07.608Z,26.17
2022-11-30T11:02:39.890Z,27.70
2022-11-30T11:05:16.903Z,28.77
2022-11-30T11:08:06.383Z,28.07
2022-11-30T11:10:38.308Z,25.80
2022-11-30T11:13:06.931Z,35.00
2022-11-30T11:15:36.473Z,35.17
2022-11-30T11:18:26.452Z,29.67
2022-11-30T11:21:07.638Z,28.47
2022-11-30T11:23:38.615Z,28.60
2022-11-30T11:26:08.541Z,30.60
2022-11-30T11:28:38.480Z,29.20
2022-11-30T11:31:19.743Z,27.10
2022-11-30T11:33:55.726Z,29.27
2022-11-30T11:36:29.218Z,32.13
2022-11-30T11:38:58.747Z,28.33
2022-11-30T11:41:30.371Z,23.30
2022-11-30T11:44:03.208Z,33.30
2022-11-30T11:46:33.258Z,28.93
2022-11-30T11:49:05.729Z,31.10
2022-11-30T11:51:38.515Z,27.40
2022-11-30T11:54:21.099Z,29.83
2022-11-30T11:56:50.490Z,24.10
2022-11-30T11:59:28.041Z,30.50
2022-11-30T12:02:04.126Z,32.03
2022-11-30T12:04:46.077Z,26.80
2022-11-30T12:07:26.929Z,27.80
2022-11-30T12:10:12.797Z,24.77
2022-11-30T12:12:54.623Z,29.23
2022-11-30T12:15:29.667Z,24.13
2022-11-30T12:18:07.813Z,25.83
2022-11-30T12:20:52.391Z,25.47
2022-11-30T12:23:47.239Z,27.20
2022-11-30T12:26:26.159Z,30.13
2022-11-30T12:29:09.928Z,22.70
2022-11-30T12:31:51.061Z,23.17
2022-11-30T12:34:26.951Z,23.60
2022-11-30T12:37:04.280Z,27.40
2022-11-30T12:39:43.837Z,25.70
2022-11-30T12:42:20.805Z,26.63
2022-11-30T12:44:57.843Z,22.40
2022-11-30T12:47:45.069Z,24.80
2022-11-30T12:50:25.483Z,24.43
2022-11-30T12:53:01.728Z,22.07
2022-11-30T12:55:40.135Z,23.07
2022-11-30T12:58:20.164Z,24.23
2022-11-30T13:01:01.355Z,21.70
2022-11-30T13:03:57.838Z,25.10
2022-11-30T13:06:33.342Z,23.27
2022-11-30T13:09:06.666Z,21.10
2022-11-30T13:11:44.220Z,37.63
2022-11-30T13:14:18.388Z,70.73
2022-11-30T13:16:48.507Z,26.77
2022-11-30T13:19:49.102Z,23.73
2022-11-30T13:22:24.760Z,22.40
2022-11-30T13:25:01.630Z,27.47
2022-11-30T13:27:37.045Z,24.17
2022-11-30T13:30:18.114Z,35.13
2022-11-30T13:32:57.805Z,22.17
2022-11-30T13:35:45.434Z,22.93
2022-11-30T13:38:37.023Z,25.60
2022-11-30T13:41:08.331Z,23.40
2022-11-30T13:43:44.431Z,20.20
2022-11-30T13:46:17.949Z,24.57
2022-11-30T13:48:46.482Z,23.77
2022-11-30T13:51:36.396Z,22.40
2022-11-30T13:54:42.668Z,22.60
2022-11-30T13:57:41.997Z,24.80
2022-11-30T14:00:43.490Z,22.77
2022-11-30T14:03:26.711Z,23.53
2022-11-30T14:05:56.125Z,23.87
2022-11-30T14:08:36.763Z,23.97
2022-11-30T14:11:48.274Z,41.27
2022-11-30T14:14:46.029Z,25.00
2022-11-30T14:17:28.337Z,29.97
2022-11-30T14:20:01.758Z,29.83
2022-11-30T14:22:30.825Z,28.03
2022-11-30T14:24:59.197Z,21.37
2022-11-30T14:27:30.534Z,27.07
2022-11-30T14:30:04.557Z,24.13
2022-11-30T14:32:38.063Z,19.83
2022-11-30T14:35:12.937Z,21.23
2022-11-30T14:37:47.363Z,17.63
2022-11-30T14:40:21.803Z,25.00
2022-11-30T14:42:52.468Z,21.23
2022-11-30T14:45:26.712Z,25.30
2022-11-30T14:48:05.482Z,21.73
2022-11-30T14:50:36.227Z,26.03
2022-11-30T14:53:21.885Z,23.33
2022-11-30T14:55:54.278Z,22.03
2022-11-30T14:58:30.886Z,27.30
2022-11-30T15:01:05.442Z,27.27
2022-11-30T15:03:40.583Z,20.87
2022-11-30T15:06:18.342Z,25.40
2022-11-30T15:08:49.992Z,24.23
2022-11-30T15:11:19.608Z,25.30
2022-11-30T15:13:50.017Z,27.03
2022-11-30T15:16:21.885Z,27.40
2022-11-30T15:18:50.614Z,27.30
2022-11-30T15:21:23.981Z,25.40
2022-11-30T15:23:52.844Z,24.20
2022-11-30T15:26:25.789Z,34.50
2022-11-30T15:28:57.654Z,25.30
2022-11-30T15:31:29.444Z,28.77
2022-11-30T15:33:57.687Z,26.93
2022-11-30T15:36:33.471Z,25.90
2022-11-30T15:39:05.347Z,22.90
2022-11-30T15:41:34.809Z,27.73
2022-11-30T15:44:03.218Z,20.70
2022-11-30T15:46:39.830Z,20.40
2022-11-30T15:49:24.688Z,27.37
2022-11-30T15:52:04.789Z,29.00
2022-11-30T15:54:47.679Z,24.57
2022-11-30T15:57:16.560Z,20.37
2022-11-30T15:59:45.344Z,20.10
2022-11-30T16:02:28.719Z,26.87
2022-11-30T16:05:25.807Z,19.43
2022-11-30T16:07:57.499Z,22.90
2022-11-30T16:10:27.907Z,23.70
2022-11-30T16:12:56.649Z,21.73
2022-11-30T16:15:27.490Z,25.40
2022-11-30T16:17:59.970Z,27.57
2022-11-30T16:20:28.509Z,32.73
2022-11-30T16:23:02.573Z,23.10
2022-11-30T16:25:33.823Z,24.07
2022-11-30T16:28:02.787Z,25.33
2022-11-30T16:30:32.313Z,17.07
2022-11-30T16:33:00.477Z,20.83
2022-11-30T16:35:36.264Z,21.90
2022-11-30T16:38:12.709Z,22.30
2022-11-30T16:40:40.834Z,20.33
2022-11-30T16:43:11.670Z,22.80
2022-11-30T16:45:41.390Z,25.10
2022-11-30T16:48:09.634Z,25.17
2022-11-30T16:50:38.442Z,22.77
2022-11-30T16:53:11.776Z,29.20
2022-11-30T16:55:40.182Z,28.80
2022-11-30T16:58:08.208Z,27.87
2022-11-30T17:00:37.141Z,22.23
2022-11-30T17:03:09.287Z,25.63
2022-11-30T17:05:37.833Z,27.07
2022-11-30T17:08:07.571Z,31.27
2022-11-30T17:10:35.671Z,27.60
2022-11-30T17:13:07.032Z,31.20
2022-11-30T17:15:35.189Z,27.17
2022-11-30T17:18:03.399Z,24.93
2022-11-30T17:20:31.505Z,24.10
2022-11-30T17:22:59.646Z,26.83
2022-11-30T17:25:29.040Z,25.43
2022-11-30T17:27:57.082Z,26.10
2022-11-30T17:30:25.321Z,23.27
2022-11-30T17:32:53.485Z,22.50
2022-11-30T17:35:21.676Z,20.77
2022-11-30T17:37:49.862Z,22.20
2022-11-30T17:40:18.099Z,24.00
2022-11-30T17:42:47.766Z,15.57
2022-11-30T17:45:15.958Z,21.27
2022-11-30T17:47:43.880Z,25.63
2022-11-30T17:50:13.798Z,25.10
2022-11-30T17:52:43.673Z,25.43
2022-11-30T17:55:11.794Z,24.70
2022-11-30T17:57:39.995Z,22.10
2022-11-30T18:00:10.500Z,16.80
2022-11-30T18:02:39.052Z,23.37
2022-11-30T18:05:08.301Z,26.67
2022-11-30T18:07:36.385Z,26.20
2022-11-30T18:10:04.687Z,27.50
2022-11-30T18:12:32.667Z,26.20
2022-11-30T18:15:00.640Z,28.47
2022-11-30T18:17:30.104Z,24.87
2022-11-30T18:20:00.119Z,33.67
2022-11-30T18:22:28.658Z,13.23
2022-11-30T18:24:56.987Z,28.93
2022-11-30T18:27:26.406Z,26.40
2022-11-30T18:29:54.715Z,30.17
2022-11-30T18:32:22.702Z,29.20
2022-11-30T18:34:52.012Z,26.53
2022-11-30T18:37:22.637Z,20.77
2022-11-30T18:39:54.440Z,23.70
2022-11-30T18:42:25.729Z,22.23
2022-11-30T18:44:53.669Z,25.07
2022-11-30T18:47:22.217Z,25.13
2022-11-30T18:49:51.517Z,23.27
2022-11-30T18:52:19.520Z,26.50
2022-11-30T18:54:47.684Z,25.40
2022-11-30T18:57:15.772Z,22.20
2022-11-30T18:59:43.708Z,25.27
2022-11-30T19:02:11.932Z,29.20
2022-11-30T19:04:39.907Z,25.80
2022-11-30T19:07:09.302Z,25.47
2022-11-30T19:09:37.303Z,25.43
2022-11-30T19:12:05.891Z,22.93
2022-11-30T19:14:35.103Z,24.30
2022-11-30T19:17:03.221Z,26.30
2022-11-30T19:19:31.337Z,25.37
2022-11-30T19:21:59.405Z,20.70
2022-11-30T19:24:28.780Z,20.87
2022-11-30T19:26:57.131Z,25.20
2022-11-30T19:29:25.313Z,24.23
2022-11-30T19:31:53.527Z,18.43
2022-11-30T19:34:23.528Z,24.60
2022-11-30T19:36:54.718Z,26.83
2022-11-30T19:39:25.798Z,22.97
2022-11-30T19:41:58.446Z,22.70
2022-11-30T19:44:35.239Z,25.77
2022-11-30T19:47:04.979Z,22.90
2022-11-30T19:49:35.664Z,23.47
2022-11-30T19:52:10.864Z,30.63
2022-11-30T19:54:39.081Z,18.40
2022-11-30T19:57:08.744Z,24.83
2022-11-30T19:59:44.591Z,26.07
2022-11-30T20:02:13.087Z,25.07
2022-11-30T20:04:44.364Z,25.40
2022-11-30T20:07:13.526Z,23.00
2022-11-30T20:09:50.600Z,28.77
2022-11-30T20:12:23.153Z,28.40
2022-11-30T20:14:52.206Z,22.53
2022-11-30T20:17:22.656Z,19.93
2022-11-30T20:19:50.878Z,24.03
2022-11-30T20:22:21.991Z,23.10
2022-11-30T20:24:52.190Z,26.30
2022-11-30T20:27:24.729Z,22.77
2022-11-30T20:29:53.503Z,26.57
2022-11-30T20:32:26.822Z,24.20
2022-11-30T20:34:55.875Z,25.70
2022-11-30T20:37:24.547Z,25.57
2022-11-30T20:39:59.110Z,23.40
2022-11-30T20:42:35.297Z,24.70
2022-11-30T20:51:14.092Z,27.83
2022-11-30T20:53:47.531Z,25.97
2022-11-30T20:56:31.814Z,25.97
2022-11-30T20:59:40.052Z,24.07
2022-11-30T21:02:16.114Z,29.67
2022-11-30T21:04:46.661Z,19.57
2022-11-30T21:07:17.962Z,22.43
2022-11-30T21:09:47.990Z,25.57
2022-11-30T21:12:22.720Z,24.00
2022-11-30T21:14:54.661Z,27.47
2022-11-30T21:17:25.087Z,21.80
2022-11-30T21:20:00.580Z,25.77
2022-11-30T21:22:28.996Z,25.90
2022-11-30T21:24:56.940Z,28.63
2022-11-30T21:27:24.993Z,27.23
2022-11-30T21:29:54.823Z,26.60
2022-11-30T21:32:22.807Z,22.83
2022-11-30T21:34:50.765Z,26.63
2022-11-30T21:37:18.856Z,24.87
2022-11-30T21:39:47.116Z,25.70
2022-11-30T21:42:17.686Z,28.00
2022-11-30T21:44:47.959Z,27.20
2022-11-30T21:47:17.751Z,26.50
2022-11-30T21:49:46.048Z,28.40
2022-11-30T21:52:14.153Z,22.90
2022-11-30T21:54:42.633Z,25.07
2022-11-30T21:57:10.785Z,26.00
2022-11-30T21:59:38.780Z,25.50
2022-11-30T22:02:06.898Z,25.33
2022-11-30T22:04:39.755Z,25.83
2022-11-30T22:07:08.062Z,25.60
2022-11-30T22:09:36.443Z,23.97
2022-11-30T22:12:05.189Z,26.47
2022-11-30T22:14:36.335Z,23.27
2022-11-30T22:17:04.518Z,25.93
2022-11-30T22:19:32.574Z,26.00
2022-11-30T22:22:02.863Z,21.80
2022-11-30T22:24:31.047Z,21.30
2022-11-30T22:26:59.279Z,19.33
2022-11-30T22:29:28.694Z,19.70
2022-11-30T22:31:56.992Z,25.47
2022-11-30T22:34:25.106Z,22.13
2022-11-30T22:36:53.497Z,19.20
2022-11-30T22:39:23.178Z,20.40
2022-11-30T22:41:55.781Z,22.23
2022-11-30T22:44:25.598Z,22.80
2022-11-30T22:46:54.054Z,26.50
2022-11-30T22:49:22.347Z,23.67
2022-11-30T22:51:51.097Z,21.67
2022-11-30T22:54:19.595Z,24.30
2022-11-30T22:56:49.173Z,25.37
2022-11-30T22:59:17.595Z,20.40
2022-11-30T23:01:47.376Z,24.23
2022-11-30T23:04:17.723Z,21.30
2022-11-30T23:06:47.507Z,20.57
2022-11-30T23:09:17.745Z,25.63
2022-11-30T23:11:46.131Z,23.17
2022-11-30T23:16:49.392Z,23.20
2022-11-30T23:19:18.325Z,21.90
2022-11-30T23:21:46.518Z,25.00
2022-11-30T23:24:17.492Z,23.73
2022-11-30T23:26:46.350Z,26.43
2022-11-30T23:29:16.335Z,18.80
2022-11-30T23:31:45.824Z,22.00
2022-11-30T23:34:17.224Z,23.73
2022-11-30T23:36:45.399Z,21.37
2022-11-30T23:39:15.896Z,19.63
2022-11-30T23:41:44.667Z,24.70
2022-11-30T23:44:13.499Z,20.30
2022-11-30T23:46:42.389Z,24.70
2022-11-30T23:49:10.830Z,20.77
2022-11-30T23:51:40.383Z,22.13
2022-11-30T23:54:08.456Z,21.43
2022-11-30T23:56:36.737Z,20.23
2022-11-30T23:59:05.369Z,24.40
